UAE514 OMDB-VIDP
Flight info
| Callsign | UAE514 |
|---|---|
| Flight time | N/A |
| Altitude | 37000 |
| Route | IVURO M677 LALDO B505 EGTAL R462 BIVIN G214 RK G202 MERUN G452 LKA LKA6A |
| Aircraft | B77W/H-SDE1E2E3FGHIJ2J3J4J5M1RWXY/LB1D1 |
Departure
| Time | 2026-04-25 12:44 |
|---|---|
| Airport | Dubai International Airport (OMDB) |
Arrival
| Time | N/A |
|---|---|
| Airport | Indira Gandhi International Airport (VIDP) |
| Time | Latitude | Longitude | Altitude | Speed | Heading |
|---|---|---|---|---|---|
| 2026-04-25 12:02 | 25.24649 | 55.36302 | 27 ft | 0 kts | 32° |
| 2026-04-25 12:28 | 25.24641 | 55.36297 | 27 ft | 4 kts | 29° |
| 2026-04-25 12:29 | 25.24617 | 55.36284 | 26 ft | 4 kts | 15° |
| 2026-04-25 12:29 | 25.24590 | 55.36280 | 25 ft | 4 kts | 354° |
| 2026-04-25 12:29 | 25.24567 | 55.36288 | 24 ft | 4 kts | 308° |
| 2026-04-25 12:29 | 25.24564 | 55.36292 | 24 ft | 0 kts | 300° |
| 2026-04-25 12:32 | 25.24565 | 55.36290 | 27 ft | 2 kts | 300° |
| 2026-04-25 12:32 | 25.24590 | 55.36244 | 27 ft | 11 kts | 303° |
| 2026-04-25 12:33 | 25.24636 | 55.36168 | 27 ft | 12 kts | 301° |
| 2026-04-25 12:33 | 25.24678 | 55.36090 | 27 ft | 12 kts | 301° |
| 2026-04-25 12:33 | 25.24721 | 55.36011 | 27 ft | 12 kts | 301° |
| 2026-04-25 12:33 | 25.24779 | 55.35904 | 27 ft | 18 kts | 301° |
| 2026-04-25 12:34 | 25.24847 | 55.35782 | 27 ft | 19 kts | 304° |
| 2026-04-25 12:34 | 25.24922 | 55.35662 | 27 ft | 19 kts | 304° |
| 2026-04-25 12:34 | 25.24992 | 55.35543 | 27 ft | 19 kts | 301° |
| 2026-04-25 12:34 | 25.25039 | 55.35460 | 27 ft | 19 kts | 302° |
| 2026-04-25 12:35 | 25.25149 | 55.35275 | 27 ft | 27 kts | 306° |
| 2026-04-25 12:35 | 25.25246 | 55.35094 | 27 ft | 27 kts | 299° |
| 2026-04-25 12:35 | 25.25344 | 55.34913 | 27 ft | 27 kts | 317° |
| 2026-04-25 12:35 | 25.25517 | 55.34930 | 27 ft | 27 kts | 33° |
| 2026-04-25 12:36 | 25.25619 | 55.35005 | 27 ft | 10 kts | 33° |
| 2026-04-25 12:36 | 25.25638 | 55.35018 | 27 ft | 0 kts | 33° |
| 2026-04-25 12:37 | 25.25702 | 55.35063 | 27 ft | 19 kts | 32° |
| 2026-04-25 12:37 | 25.25759 | 55.35178 | 27 ft | 17 kts | 70° |
| 2026-04-25 12:37 | 25.25842 | 55.35267 | 27 ft | 17 kts | 33° |
| 2026-04-25 12:37 | 25.25941 | 55.35340 | 27 ft | 17 kts | 42° |
| 2026-04-25 12:38 | 25.25988 | 55.35428 | 27 ft | 13 kts | 76° |
| 2026-04-25 12:38 | 25.25984 | 55.35526 | 27 ft | 13 kts | 102° |
| 2026-04-25 12:38 | 25.25908 | 55.35677 | 27 ft | 32 kts | 122° |
| 2026-04-25 12:38 | 25.25788 | 55.35890 | 27 ft | 32 kts | 122° |
| 2026-04-25 12:39 | 25.25672 | 55.36098 | 27 ft | 31 kts | 122° |
| 2026-04-25 12:39 | 25.25561 | 55.36299 | 27 ft | 30 kts | 121° |
| 2026-04-25 12:39 | 25.25453 | 55.36496 | 27 ft | 30 kts | 121° |
| 2026-04-25 12:39 | 25.25343 | 55.36692 | 27 ft | 30 kts | 122° |
| 2026-04-25 12:40 | 25.25235 | 55.36886 | 27 ft | 30 kts | 121° |
| 2026-04-25 12:40 | 25.25128 | 55.37084 | 27 ft | 30 kts | 120° |
| 2026-04-25 12:40 | 25.25020 | 55.37282 | 27 ft | 30 kts | 122° |
| 2026-04-25 12:40 | 25.24909 | 55.37477 | 27 ft | 30 kts | 122° |
| 2026-04-25 12:41 | 25.24837 | 55.37609 | 27 ft | 16 kts | 123° |
| 2026-04-25 12:41 | 25.24777 | 55.37715 | 27 ft | 17 kts | 121° |
| 2026-04-25 12:41 | 25.24716 | 55.37827 | 27 ft | 17 kts | 121° |
| 2026-04-25 12:41 | 25.24678 | 55.37936 | 27 ft | 9 kts | 76° |
| 2026-04-25 12:42 | 25.24689 | 55.37956 | 27 ft | 1 kts | 47° |
| 2026-04-25 12:42 | 25.24702 | 55.37968 | 27 ft | 6 kts | 40° |
| 2026-04-25 12:42 | 25.24751 | 55.38009 | 27 ft | 7 kts | 31° |
| 2026-04-25 12:42 | 25.24795 | 55.38020 | 27 ft | 7 kts | 353° |
| 2026-04-25 12:43 | 25.24824 | 55.37994 | 27 ft | 0 kts | 298° |
| 2026-04-25 12:43 | 25.24947 | 55.37777 | 27 ft | 71 kts | 301° |
| 2026-04-25 12:44 | 25.25328 | 55.37086 | 27 ft | 139 kts | 301° |
| 2026-04-25 12:44 | 25.25924 | 55.36014 | 175 ft | 176 kts | 303° |
| 2026-04-25 12:44 | 25.27303 | 55.33719 | 1365 ft | 180 kts | 301° |
| 2026-04-25 12:45 | 25.27945 | 55.32519 | 2001 ft | 189 kts | 301° |
| 2026-04-25 12:45 | 25.28666 | 55.31181 | 2255 ft | 214 kts | 301° |
| 2026-04-25 12:45 | 25.31115 | 55.29311 | 3012 ft | 241 kts | 0° |
| 2026-04-25 12:46 | 25.32850 | 55.29438 | 3474 ft | 258 kts | 2° |
| 2026-04-25 12:46 | 25.34676 | 55.29541 | 4160 ft | 265 kts | 4° |
| 2026-04-25 12:46 | 25.36428 | 55.30218 | 4820 ft | 277 kts | 37° |
| 2026-04-25 12:46 | 25.37612 | 55.31923 | 5548 ft | 287 kts | 68° |
| 2026-04-25 12:47 | 25.37915 | 55.34116 | 6292 ft | 290 kts | 92° |
| 2026-04-25 12:47 | 25.37810 | 55.36267 | 6989 ft | 294 kts | 94° |
| 2026-04-25 12:47 | 25.37677 | 55.38527 | 7813 ft | 296 kts | 95° |
| 2026-04-25 12:47 | 25.37532 | 55.40823 | 8617 ft | 300 kts | 95° |
| 2026-04-25 12:48 | 25.37382 | 55.43137 | 9446 ft | 303 kts | 95° |
| 2026-04-25 12:48 | 25.37232 | 55.45470 | 10223 ft | 306 kts | 95° |
| 2026-04-25 12:48 | 25.37077 | 55.47878 | 10676 ft | 325 kts | 95° |
| 2026-04-25 12:48 | 25.36913 | 55.50454 | 10865 ft | 352 kts | 95° |
| 2026-04-25 12:49 | 25.36735 | 55.53260 | 11063 ft | 378 kts | 95° |
| 2026-04-25 12:49 | 25.36549 | 55.56236 | 11569 ft | 393 kts | 95° |
| 2026-04-25 12:49 | 25.36361 | 55.59274 | 12382 ft | 399 kts | 95° |
| 2026-04-25 12:49 | 25.36173 | 55.62319 | 13343 ft | 402 kts | 95° |
| 2026-04-25 12:50 | 25.35982 | 55.65427 | 14174 ft | 407 kts | 95° |
| 2026-04-25 12:50 | 25.35786 | 55.68579 | 14910 ft | 414 kts | 95° |
| 2026-04-25 12:50 | 25.35587 | 55.71776 | 15636 ft | 420 kts | 95° |
| 2026-04-25 12:50 | 25.35383 | 55.75040 | 16374 ft | 426 kts | 95° |
| 2026-04-25 12:51 | 25.35177 | 55.78331 | 17136 ft | 432 kts | 95° |